Time;durP1;ratioP1;P1;durP2;ratioP2;P2;SDS_P1;SDS_P2;PMS_P1;PMS_P2;Temp;Humidity;BMP_temperature;BMP_pressure;BME280_temperature;BME280_humidity;BME280_pressure;Samples;Min_cycle;Max_cycle;Signal;HPM_P1;HPM_P2
2023/07/04 00:02:07;;;;;;;9.00;2.45;;;14.60;82.40;;;;;;5028047;28;20064;-80
2023/07/04 00:04:34;;;;;;;7.65;2.22;;;14.60;82.40;;;;;;5028181;28;20606;-81
2023/07/04 00:07:03;;;;;;;7.82;2.28;;;14.70;82.40;;;;;;5028412;28;20058;-81
2023/07/04 00:09:30;;;;;;;9.43;2.65;;;14.70;82.40;;;;;;5008318;28;20054;-81
2023/07/04 00:11:58;;;;;;;8.27;2.23;;;14.70;82.40;;;;;;5008480;28;20070;-81
2023/07/04 00:14:25;;;;;;;5.95;1.98;;;14.70;82.50;;;;;;5008390;28;20082;-80
2023/07/04 00:16:52;;;;;;;8.77;2.17;;;14.70;82.30;;;;;;5037045;28;20050;-80
2023/07/04 00:19:20;;;;;;;9.60;2.38;;;14.70;82.40;;;;;;5044651;22;20224;-80
2023/07/04 00:21:47;;;;;;;7.97;2.13;;;14.70;82.50;;;;;;5010433;28;20050;-81
2023/07/04 00:24:17;;;;;;;9.67;2.60;;;14.70;82.40;;;;;;5026856;28;20068;-81
2023/07/04 00:26:45;;;;;;;9.98;2.35;;;14.70;82.20;;;;;;5027341;28;20058;-81
2023/07/04 00:29:12;;;;;;;9.30;2.47;;;14.70;82.20;;;;;;5027059;28;20057;-81
2023/07/04 00:31:40;;;;;;;9.20;2.28;;;14.70;82.20;;;;;;5010519;28;20582;-81
2023/07/04 00:34:07;;;;;;;11.38;2.42;;;14.70;82.20;;;;;;5026163;28;20766;-81
2023/07/04 00:36:37;;;;;;;9.30;2.60;;;14.60;82.00;;;;;;5010770;28;20680;-81
2023/07/04 00:39:04;;;;;;;9.75;2.38;;;14.60;82.00;;;;;;5023869;28;20101;-81
2023/07/04 00:41:32;;;;;;;8.32;2.53;;;14.60;82.00;;;;;;5010372;28;20061;-81
2023/07/04 00:44:08;;;;;;;9.80;2.72;;;14.60;82.00;;;;;;5011093;28;20145;-81
2023/07/04 00:46:40;;;;;;;10.15;2.60;;;14.60;82.20;;;;;;5035868;28;20391;-81
2023/07/04 00:49:18;;;;;;;12.13;2.77;;;14.60;82.30;;;;;;5012066;28;20042;-81
2023/07/04 00:51:50;;;;;;;10.48;2.65;;;14.60;82.30;;;;;;5026838;28;20046;-81
2023/07/04 00:54:19;;;;;;;9.07;2.90;;;14.60;82.40;;;;;;5006640;28;20522;-81
2023/07/04 00:56:46;;;;;;;11.02;3.38;;;14.60;82.40;;;;;;5022373;28;20057;-81
2023/07/04 00:59:13;;;;;;;9.15;3.10;;;14.60;82.60;;;;;;5026693;28;20042;-81
2023/07/04 01:01:42;;;;;;;12.67;3.00;;;14.50;82.60;;;;;;5006721;28;20054;-81
2023/07/04 01:04:09;;;;;;;8.88;2.60;;;14.50;82.80;;;;;;5001257;28;20049;-81
2023/07/04 01:06:42;;;;;;;11.13;3.00;;;14.50;82.60;;;;;;5013441;28;20074;-80
2023/07/04 01:09:12;;;;;;;11.00;2.85;;;14.50;82.90;;;;;;5012955;28;20058;-81
2023/07/04 01:11:42;;;;;;;11.75;3.28;;;14.50;83.00;;;;;;5029927;28;20268;-81
2023/07/04 01:14:19;;;;;;;7.80;2.80;;;14.50;83.00;;;;;;5013515;28;20635;-80
2023/07/04 01:16:47;;;;;;;11.45;2.92;;;14.50;83.10;;;;;;5013580;28;20500;-81
2023/07/04 01:19:22;;;;;;;12.32;3.25;;;14.50;83.00;;;;;;5008996;28;20586;-81
2023/07/04 01:21:51;;;;;;;9.57;2.80;;;14.50;83.20;;;;;;5029538;28;20281;-81
2023/07/04 01:24:29;;;;;;;9.63;2.90;;;14.50;83.20;;;;;;5029750;28;20058;-81
2023/07/04 01:26:59;;;;;;;9.13;2.97;;;14.40;83.20;;;;;;5009654;28;20054;-81
2023/07/04 01:29:26;;;;;;;9.93;2.72;;;14.40;83.20;;;;;;5005435;28;20090;-81
2023/07/04 01:31:53;;;;;;;12.07;3.00;;;14.40;83.00;;;;;;5010260;28;20142;-81
2023/07/04 01:34:20;;;;;;;7.00;2.67;;;14.40;83.20;;;;;;5007640;28;20046;-81
2023/07/04 01:36:47;;;;;;;9.93;2.88;;;14.40;83.30;;;;;;5013623;28;20062;-81
2023/07/04 01:39:15;;;;;;;10.13;2.83;;;14.40;83.20;;;;;;5031131;28;20042;-80
2023/07/04 01:41:45;;;;;;;10.02;3.00;;;14.40;83.50;;;;;;5029441;28;20431;-80
2023/07/04 01:44:16;;;;;;;9.10;2.90;;;14.40;83.50;;;;;;5028768;28;20050;-81
2023/07/04 01:46:44;;;;;;;8.07;2.67;;;14.40;83.30;;;;;;5013196;28;20108;-81
2023/07/04 01:49:13;;;;;;;9.70;2.70;;;14.40;83.30;;;;;;5009459;28;20105;-81
2023/07/04 01:51:42;;;;;;;13.03;2.87;;;14.40;83.30;;;;;;4993376;28;20575;-81
2023/07/04 01:54:16;;;;;;;10.68;3.00;;;14.40;83.20;;;;;;5022528;28;20132;-81
2023/07/04 01:56:44;;;;;;;8.35;2.42;;;14.40;83.30;;;;;;5013312;28;20050;-80
2023/07/04 01:59:13;;;;;;;9.73;3.05;;;14.40;83.20;;;;;;5012545;28;20518;-81
2023/07/04 02:01:41;;;;;;;9.85;2.40;;;14.30;83.10;;;;;;4996639;28;20054;-81
2023/07/04 02:04:08;;;;;;;8.63;2.90;;;14.30;83.00;;;;;;5021640;28;20053;-81
2023/07/04 02:06:35;;;;;;;10.48;2.72;;;14.30;83.10;;;;;;5013238;28;20112;-81
2023/07/04 02:09:02;;;;;;;9.63;2.55;;;14.30;82.90;;;;;;5028873;28;20591;-81
2023/07/04 02:11:29;;;;;;;10.73;2.70;;;14.20;83.00;;;;;;5012830;28;20046;-81
2023/07/04 02:13:57;;;;;;;7.95;2.90;;;14.20;83.00;;;;;;5012822;28;20077;-81
2023/07/04 02:16:25;;;;;;;5.63;2.10;;;14.20;82.90;;;;;;5013209;28;20550;-81
2023/07/04 02:18:52;;;;;;;12.50;2.75;;;14.20;83.00;;;;;;5007837;28;20492;-81
2023/07/04 02:21:19;;;;;;;11.85;2.95;;;14.10;83.00;;;;;;4992813;28;20046;-81
2023/07/04 02:23:46;;;;;;;7.55;2.75;;;14.10;83.00;;;;;;5022654;28;20581;-81
2023/07/04 02:26:13;;;;;;;6.97;2.63;;;14.10;82.90;;;;;;5025760;28;20169;-80
2023/07/04 02:28:40;;;;;;;9.73;2.90;;;14.00;82.90;;;;;;5021671;28;20052;-81
2023/07/04 02:31:08;;;;;;;7.68;2.55;;;14.00;83.10;;;;;;5012354;28;20097;-80
2023/07/04 02:33:36;;;;;;;7.35;2.60;;;14.00;83.10;;;;;;5009376;28;20636;-80
2023/07/04 02:36:04;;;;;;;11.88;2.60;;;14.00;83.20;;;;;;5005809;28;20058;-81
2023/07/04 02:38:30;;;;;;;8.43;2.70;;;14.00;83.20;;;;;;5009293;28;20070;-81
2023/07/04 02:40:58;;;;;;;7.87;2.50;;;13.90;83.10;;;;;;4992413;28;20062;-81
2023/07/04 02:43:25;;;;;;;7.43;2.50;;;13.90;83.20;;;;;;5018044;28;20054;-81
2023/07/04 02:45:52;;;;;;;9.32;2.70;;;13.90;83.20;;;;;;5012113;28;20062;-80
2023/07/04 02:48:20;;;;;;;7.35;2.45;;;13.90;83.20;;;;;;5011767;28;20437;-81
2023/07/04 02:50:49;;;;;;;8.60;2.55;;;13.90;83.20;;;;;;5012294;28;20049;-80
2023/07/04 02:53:21;;;;;;;7.97;2.50;;;13.90;83.20;;;;;;5004638;28;20062;-80
2023/07/04 02:55:48;;;;;;;7.22;2.10;;;13.90;83.00;;;;;;4992557;28;20047;-80
2023/07/04 02:58:15;;;;;;;7.22;2.20;;;13.90;83.10;;;;;;4999657;28;20053;-81
2023/07/04 03:00:42;;;;;;;9.60;2.60;;;13.90;83.30;;;;;;5028629;28;20137;-81
2023/07/04 03:03:10;;;;;;;9.00;2.70;;;13.90;83.20;;;;;;5027449;28;20054;-81
2023/07/04 03:05:37;;;;;;;9.27;2.27;;;13.80;83.20;;;;;;5011573;28;20053;-81
2023/07/04 03:08:07;;;;;;;8.13;2.80;;;13.80;83.40;;;;;;5011843;28;20621;-80
2023/07/04 03:10:35;;;;;;;8.02;2.75;;;13.80;83.30;;;;;;5005383;28;20089;-80
2023/07/04 03:13:03;;;;;;;11.50;2.97;;;13.70;83.30;;;;;;4990428;28;20636;-80
2023/07/04 03:15:34;;;;;;;9.88;2.80;;;13.70;83.40;;;;;;5000496;28;20061;-80
2023/07/04 03:18:02;;;;;;;9.47;2.70;;;13.70;83.40;;;;;;5006670;28;20050;-80
2023/07/04 03:20:29;;;;;;;9.35;2.42;;;13.70;83.50;;;;;;5014846;28;20602;-80
2023/07/04 03:22:56;;;;;;;7.35;3.03;;;13.70;83.60;;;;;;5009807;28;20147;-81
2023/07/04 03:25:27;;;;;;;10.73;3.47;;;13.70;83.70;;;;;;5010633;28;20046;-81
2023/07/04 03:27:58;;;;;;;8.80;2.70;;;13.70;83.70;;;;;;5010102;28;20046;-81
2023/07/04 03:30:28;;;;;;;9.07;3.00;;;13.60;83.70;;;;;;5011402;28;20056;-80
2023/07/04 03:33:01;;;;;;;9.23;2.80;;;13.60;83.70;;;;;;5011341;28;20837;-81
2023/07/04 03:35:28;;;;;;;8.25;2.70;;;13.60;83.80;;;;;;5007742;28;20138;-81
2023/07/04 03:37:56;;;;;;;8.70;2.97;;;13.60;83.90;;;;;;4991773;28;20141;-81
2023/07/04 03:40:23;;;;;;;8.75;3.00;;;13.60;83.90;;;;;;5015011;28;20061;-80
2023/07/04 03:42:51;;;;;;;9.13;2.70;;;13.60;84.00;;;;;;5011224;28;20144;-80
2023/07/04 03:45:18;;;;;;;13.65;3.38;;;13.60;84.00;;;;;;5026766;28;20046;-80
2023/07/04 03:47:46;;;;;;;9.60;3.10;;;13.50;84.10;;;;;;5010914;28;20381;-81
2023/07/04 03:50:14;;;;;;;9.32;2.85;;;13.50;84.20;;;;;;5027305;28;20081;-81
2023/07/04 03:52:43;;;;;;;9.65;2.97;;;13.50;84.20;;;;;;5027493;28;20448;-80
2023/07/04 03:55:10;;;;;;;10.60;2.90;;;13.50;84.20;;;;;;5011267;28;20072;-80
2023/07/04 03:57:39;;;;;;;7.40;2.85;;;13.50;84.30;;;;;;5011289;28;20042;-80
2023/07/04 04:00:11;;;;;;;10.68;3.03;;;13.50;84.30;;;;;;5027263;28;20615;-80
2023/07/04 04:02:56;;;;;;;9.45;3.08;;;13.50;84.60;;;;;;5026767;28;20057;-80
2023/07/04 04:05:23;;;;;;;10.65;3.50;;;13.50;84.40;;;;;;5010888;28;20053;-80
2023/07/04 04:07:50;;;;;;;8.00;2.80;;;13.50;84.50;;;;;;5011238;28;20099;-81
2023/07/04 04:10:18;;;;;;;9.18;3.15;;;13.50;84.60;;;;;;5027186;28;20530;-80
2023/07/04 04:12:45;;;;;;;7.97;2.88;;;13.50;84.60;;;;;;5024341;28;20050;-81
2023/07/04 04:15:14;;;;;;;9.55;3.30;;;13.50;84.70;;;;;;5016425;28;20184;-80
2023/07/04 04:17:41;;;;;;;10.63;3.42;;;13.50;84.90;;;;;;5027811;28;20046;-80
2023/07/04 04:20:10;;;;;;;11.53;3.10;;;13.50;85.00;;;;;;5025618;28;20128;-80
2023/07/04 04:22:39;;;;;;;8.68;3.13;;;13.50;84.90;;;;;;5028533;28;20057;-80
2023/07/04 04:25:07;;;;;;;10.85;2.78;;;13.50;85.00;;;;;;5026903;28;20053;-80
2023/07/04 04:27:35;;;;;;;9.73;3.00;;;13.50;85.00;;;;;;5027504;28;20133;-80
2023/07/04 04:30:08;;;;;;;9.43;2.92;;;13.50;85.10;;;;;;5016609;28;20551;-80
2023/07/04 04:32:36;;;;;;;9.67;3.20;;;13.50;85.20;;;;;;5026800;28;20049;-80
2023/07/04 04:35:04;;;;;;;8.18;2.72;;;13.50;85.40;;;;;;5031261;28;20191;-80
2023/07/04 04:37:31;;;;;;;12.23;2.75;;;13.50;85.40;;;;;;5021507;28;20046;-80
2023/07/04 04:39:59;;;;;;;15.00;3.20;;;13.50;85.30;;;;;;5028558;28;20104;-80
2023/07/04 04:42:27;;;;;;;10.27;3.22;;;13.50;85.50;;;;;;5031184;28;20506;-80
2023/07/04 04:44:54;;;;;;;9.47;2.90;;;13.50;85.70;;;;;;5030073;28;20049;-80
2023/07/04 04:47:23;;;;;;;10.50;2.72;;;13.50;85.60;;;;;;5038552;28;20049;-81
2023/07/04 04:49:52;;;;;;;9.13;3.15;;;13.50;85.60;;;;;;5026845;28;20172;-80
2023/07/04 04:52:20;;;;;;;9.65;2.65;;;13.50;85.50;;;;;;5026632;28;20085;-81
2023/07/04 04:54:48;;;;;;;8.35;2.92;;;13.50;85.70;;;;;;5025753;28;20133;-80
2023/07/04 04:57:15;;;;;;;10.10;3.30;;;13.50;85.80;;;;;;5026937;28;20854;-80
2023/07/04 04:59:42;;;;;;;9.98;3.05;;;13.60;85.80;;;;;;5026712;28;20125;-80
2023/07/04 05:02:10;;;;;;;7.45;2.90;;;13.60;85.80;;;;;;5010176;28;20140;-80
2023/07/04 05:04:36;;;;;;;9.00;2.60;;;13.60;85.80;;;;;;5027138;28;20046;-80
2023/07/04 05:07:06;;;;;;;8.40;3.00;;;13.60;85.90;;;;;;5027390;28;20053;-80
2023/07/04 05:09:33;;;;;;;9.63;3.00;;;13.60;85.90;;;;;;5028821;28;20056;-80
2023/07/04 05:12:00;;;;;;;9.02;2.80;;;13.60;85.70;;;;;;5026247;28;20050;-80
2023/07/04 05:14:28;;;;;;;9.35;2.58;;;13.60;85.70;;;;;;5027284;28;20054;-80
2023/07/04 05:16:55;;;;;;;7.60;2.70;;;13.60;85.70;;;;;;5027102;28;20045;-80
2023/07/04 05:19:22;;;;;;;10.48;2.90;;;13.70;85.70;;;;;;5027051;28;20053;-80
2023/07/04 05:21:49;;;;;;;8.77;2.27;;;13.70;85.80;;;;;;5026929;28;20050;-80
2023/07/04 05:24:17;;;;;;;9.98;2.20;;;13.70;85.70;;;;;;5010563;28;20544;-80
2023/07/04 05:26:44;;;;;;;5.90;2.15;;;13.70;85.50;;;;;;5027283;28;20120;-80
2023/07/04 05:29:11;;;;;;;7.15;2.25;;;13.70;85.50;;;;;;5025974;28;20049;-80
2023/07/04 05:31:38;;;;;;;7.18;2.08;;;13.70;85.50;;;;;;5026790;28;20489;-80
2023/07/04 05:34:06;;;;;;;6.67;1.77;;;13.80;85.40;;;;;;5010586;28;20149;-80
2023/07/04 05:36:33;;;;;;;6.57;2.00;;;13.80;85.30;;;;;;5026867;28;20125;-80
2023/07/04 05:39:02;;;;;;;7.38;1.90;;;13.90;85.20;;;;;;5027140;28;20054;-80
2023/07/04 05:41:32;;;;;;;5.85;1.92;;;13.90;85.10;;;;;;5026750;28;20054;-80
2023/07/04 05:44:02;;;;;;;5.53;2.10;;;13.90;84.90;;;;;;5026817;28;20046;-80
2023/07/04 05:46:29;;;;;;;6.47;2.07;;;13.90;84.90;;;;;;5028261;28;20050;-80
2023/07/04 05:48:57;;;;;;;7.70;1.77;;;13.90;84.70;;;;;;5029801;28;20573;-80
2023/07/04 05:51:25;;;;;;;7.18;2.00;;;13.90;84.70;;;;;;5011527;28;20049;-80
2023/07/04 05:53:53;;;;;;;6.75;1.70;;;13.90;84.70;;;;;;5029943;28;20057;-80
2023/07/04 05:56:24;;;;;;;6.78;2.00;;;13.90;84.70;;;;;;5013681;28;20073;-79
2023/07/04 05:58:55;;;;;;;4.50;1.40;;;14.00;84.50;;;;;;5029390;28;20053;-80
2023/07/04 06:01:24;;;;;;;5.00;1.92;;;14.00;84.60;;;;;;5031094;28;20502;-80
2023/07/04 06:03:52;;;;;;;5.85;1.80;;;14.00;84.50;;;;;;5012622;28;20145;-80
2023/07/04 06:06:22;;;;;;;7.20;1.60;;;14.00;84.20;;;;;;5028074;28;20129;-80
2023/07/04 06:08:56;;;;;;;7.60;1.95;;;14.00;84.20;;;;;;5014356;28;20058;-79
2023/07/04 06:11:26;;;;;;;8.57;1.90;;;14.10;84.10;;;;;;5045690;28;20058;-79
2023/07/04 06:13:55;;;;;;;6.40;2.08;;;14.10;84.20;;;;;;5025832;28;20318;-79
2023/07/04 06:16:22;;;;;;;6.50;1.73;;;14.10;84.40;;;;;;5027253;28;20153;-79
2023/07/04 06:18:49;;;;;;;5.47;1.50;;;14.20;84.30;;;;;;5012667;28;20100;-79
2023/07/04 06:21:18;;;;;;;6.22;1.73;;;14.20;84.10;;;;;;5031002;28;20053;-78
2023/07/04 06:23:46;;;;;;;4.63;1.50;;;14.30;83.80;;;;;;5037061;28;20107;-79
2023/07/04 06:26:13;;;;;;;6.93;1.65;;;14.30;83.70;;;;;;5036164;28;20133;-79
2023/07/04 06:28:41;;;;;;;7.00;1.80;;;14.40;83.20;;;;;;5036311;28;20042;-78
2023/07/04 06:31:14;;;;;;;6.82;1.73;;;14.40;83.30;;;;;;5037297;28;20137;-78
2023/07/04 06:33:46;;;;;;;6.90;1.80;;;14.40;83.10;;;;;;5038964;28;20128;-79
2023/07/04 06:36:19;;;;;;;8.50;1.70;;;14.50;82.50;;;;;;5024383;28;20047;-79
2023/07/04 06:38:46;;;;;;;5.45;1.65;;;14.50;82.00;;;;;;5037591;28;20057;-79
2023/07/04 06:41:15;;;;;;;5.68;1.60;;;14.60;82.00;;;;;;5031459;28;20620;-78
2023/07/04 06:43:45;;;;;;;6.82;1.52;;;14.60;82.10;;;;;;5032532;28;20050;-78
2023/07/04 06:46:15;;;;;;;8.25;1.85;;;14.60;82.10;;;;;;5031810;28;20042;-79
2023/07/04 06:48:42;;;;;;;6.10;1.70;;;14.60;82.10;;;;;;5032283;28;20061;-81
2023/07/04 06:51:12;;;;;;;6.75;1.55;;;14.70;82.00;;;;;;5033403;28;20060;-81
2023/07/04 06:53:40;;;;;;;5.07;1.40;;;14.70;82.00;;;;;;5035460;28;20125;-81
2023/07/04 06:56:09;;;;;;;6.22;1.60;;;14.70;81.90;;;;;;5038671;28;20097;-81
2023/07/04 06:58:37;;;;;;;4.15;1.42;;;14.70;81.90;;;;;;5036713;28;20054;-81
2023/07/04 07:01:05;;;;;;;6.67;1.40;;;14.80;81.80;;;;;;5035145;28;20054;-81
2023/07/04 07:03:34;;;;;;;7.28;1.55;;;14.80;81.80;;;;;;5020441;28;20050;-79
2023/07/04 07:06:02;;;;;;;4.00;1.10;;;14.90;81.20;;;;;;5008702;28;20133;-80
2023/07/04 07:08:30;;;;;;;5.95;1.15;;;14.90;80.50;;;;;;5002899;28;20090;-84
2023/07/04 07:10:58;;;;;;;5.97;1.30;;;14.90;80.50;;;;;;5036495;28;20060;-85
2023/07/04 07:13:26;;;;;;;6.87;1.60;;;15.00;80.80;;;;;;5044212;28;20616;-85
2023/07/04 07:15:54;;;;;;;5.05;1.08;;;15.00;80.40;;;;;;5043294;28;20052;-82
2023/07/04 07:18:21;;;;;;;7.10;1.45;;;15.00;79.50;;;;;;5012066;28;20088;-81
2023/07/04 07:20:58;;;;;;;5.60;1.30;;;15.10;79.50;;;;;;5028297;28;20052;-83
2023/07/04 07:23:25;;;;;;;4.40;0.95;;;15.20;78.70;;;;;;5026922;28;20046;-79
2023/07/04 07:25:55;;;;;;;7.20;1.37;;;15.20;78.10;;;;;;5027295;28;20085;-81
2023/07/04 07:28:23;;;;;;;5.60;1.20;;;15.20;78.40;;;;;;5017057;28;20065;-80
2023/07/04 07:31:00;;;;;;;6.47;1.30;;;15.30;78.50;;;;;;5029398;28;20058;-79
2023/07/04 07:33:27;;;;;;;7.13;1.10;;;15.30;78.50;;;;;;5026304;28;20045;-83
2023/07/04 07:36:45;;;;;;;7.03;1.42;;;15.30;77.80;;;;;;5027307;28;20168;-81
2023/07/04 07:39:17;;;;;;;6.80;1.00;;;15.40;77.40;;;;;;5001671;28;20053;-80
2023/07/04 07:41:46;;;;;;;3.70;0.80;;;15.40;77.40;;;;;;5041228;28;20090;-80
2023/07/04 07:44:14;;;;;;;5.60;1.20;;;15.50;76.40;;;;;;5040079;28;20501;-81
2023/07/04 07:46:42;;;;;;;5.10;1.10;;;15.50;76.60;;;;;;5022042;28;20061;-83
2023/07/04 07:49:09;;;;;;;5.88;1.15;;;15.60;76.00;;;;;;5037157;28;20515;-83
2023/07/04 07:51:38;;;;;;;7.00;1.10;;;15.60;75.20;;;;;;5023998;28;20156;-82
2023/07/04 07:54:07;;;;;;;5.53;1.20;;;15.60;75.30;;;;;;5038079;28;20052;-82
2023/07/04 07:56:44;;;;;;;5.63;1.35;;;15.60;75.40;;;;;;5037412;28;20060;-82
2023/07/04 07:59:11;;;;;;;6.30;1.60;;;15.80;74.70;;;;;;5036840;28;20199;-82
2023/07/04 08:01:39;;;;;;;3.45;0.90;;;15.80;74.10;;;;;;5022430;28;20057;-82
2023/07/04 08:04:06;;;;;;;8.50;0.80;;;15.80;73.10;;;;;;5019004;28;20170;-82
2023/07/04 08:06:36;;;;;;;5.63;0.95;;;15.90;72.10;;;;;;5027896;28;20062;-82
2023/07/04 08:09:06;;;;;;;7.25;1.23;;;16.00;71.00;;;;;;5031284;28;20076;-82
2023/07/04 08:11:34;;;;;;;4.55;0.90;;;16.00;71.10;;;;;;5017023;28;20045;-83
2023/07/04 08:14:02;;;;;;;6.25;1.20;;;16.10;69.80;;;;;;5036153;28;20297;-79
2023/07/04 08:16:31;;;;;;;6.20;1.50;;;16.10;70.30;;;;;;5038563;28;20129;-79
2023/07/04 08:19:00;;;;;;;7.57;1.42;;;16.10;70.50;;;;;;5032596;28;20057;-79
2023/07/04 08:21:28;;;;;;;4.50;1.27;;;16.10;70.30;;;;;;5038776;28;20069;-79
2023/07/04 08:23:55;;;;;;;7.35;1.05;;;16.20;69.00;;;;;;5035378;28;20145;-80
2023/07/04 08:26:24;;;;;;;5.28;1.30;;;16.20;68.80;;;;;;5036088;28;20157;-79
2023/07/04 08:28:56;;;;;;;8.07;1.40;;;16.20;68.30;;;;;;5020283;28;20058;-80
2023/07/04 08:31:24;;;;;;;7.97;1.60;;;16.20;68.90;;;;;;5036441;28;20061;-82
2023/07/04 08:33:52;;;;;;;4.47;1.10;;;16.20;69.30;;;;;;5033894;28;20519;-83
2023/07/04 08:36:19;;;;;;;7.50;1.05;;;16.30;69.50;;;;;;5057536;28;20053;-83
2023/07/04 08:38:48;;;;;;;6.60;1.50;;;16.40;68.60;;;;;;5034824;28;20052;-81
2023/07/04 08:41:27;;;;;;;6.47;1.23;;;16.40;68.20;;;;;;5030379;28;20124;-84
2023/07/04 08:43:59;;;;;;;7.75;1.45;;;16.40;67.50;;;;;;5019451;28;20128;-85
2023/07/04 08:46:31;;;;;;;7.85;1.35;;;16.40;67.30;;;;;;5034081;28;20076;-83
2023/07/04 08:48:59;;;;;;;6.13;1.40;;;16.40;67.00;;;;;;5026092;28;20054;-82
2023/07/04 08:51:44;;;;;;;7.05;1.30;;;16.40;67.20;;;;;;5009294;28;20072;-82
2023/07/04 08:54:13;;;;;;;6.40;1.43;;;16.40;67.00;;;;;;5018662;28;20057;-83
2023/07/04 08:56:41;;;;;;;5.88;1.27;;;16.40;66.50;;;;;;5034904;28;20076;-83
2023/07/04 08:59:21;;;;;;;6.95;1.00;;;16.40;67.40;;;;;;5030593;28;20555;-80
2023/07/04 09:02:16;;;;;;;8.40;1.42;;;16.40;65.50;;;;;;5032012;28;20156;-82
2023/07/04 09:04:52;;;;;;;6.75;1.30;;;16.40;65.30;;;;;;5025002;28;20567;-83
2023/07/04 09:07:27;;;;;;;6.10;1.30;;;16.40;65.50;;;;;;5033103;28;20125;-82
2023/07/04 09:10:04;;;;;;;6.10;1.48;;;16.50;64.80;;;;;;5017198;28;20099;-82
2023/07/04 09:12:36;;;;;;;7.28;1.60;;;16.40;65.50;;;;;;5035743;28;20050;-82
2023/07/04 09:15:15;;;;;;;5.95;1.30;;;16.50;66.00;;;;;;5046460;28;20108;-84
2023/07/04 09:17:51;;;;;;;6.20;1.30;;;16.50;66.40;;;;;;5033082;28;20050;-82
2023/07/04 09:20:18;;;;;;;7.33;1.57;;;16.50;66.60;;;;;;5029796;28;20561;-83
2023/07/04 09:22:45;;;;;;;12.15;1.60;;;16.50;66.90;;;;;;5035650;28;20896;-84
2023/07/04 09:25:12;;;;;;;6.63;1.50;;;16.50;67.00;;;;;;5033582;28;20136;-83
2023/07/04 09:27:40;;;;;;;9.32;1.58;;;16.50;67.50;;;;;;5024960;28;20045;-83
2023/07/04 09:30:09;;;;;;;8.10;1.80;;;16.50;68.20;;;;;;5030252;28;20085;-83
2023/07/04 09:32:36;;;;;;;7.80;1.77;;;16.50;68.20;;;;;;5036685;28;20056;-80
2023/07/04 09:35:06;;;;;;;8.18;1.42;;;16.50;67.70;;;;;;5036835;28;20057;-81
2023/07/04 09:37:54;;;;;;;9.60;1.90;;;16.60;67.60;;;;;;5039084;28;20049;-82
2023/07/04 09:40:40;;;;;;;8.18;1.50;;;16.50;68.70;;;;;;5035419;28;20053;-82
2023/07/04 09:43:08;;;;;;;7.07;1.60;;;16.60;69.00;;;;;;5036668;28;20052;-82
2023/07/04 09:45:35;;;;;;;7.90;1.73;;;16.70;68.70;;;;;;5022035;28;20585;-83
2023/07/04 09:48:05;;;;;;;7.65;1.70;;;16.70;68.60;;;;;;5014335;28;20065;-80
2023/07/04 09:50:36;;;;;;;9.40;2.00;;;16.80;68.80;;;;;;5031868;28;20048;-81
2023/07/04 09:53:28;;;;;;;9.15;1.65;;;16.90;68.50;;;;;;5040619;28;20057;-82
2023/07/04 09:56:00;;;;;;;10.25;2.03;;;16.90;68.00;;;;;;5083285;22;20053;-84
2023/07/04 09:58:29;;;;;;;10.87;1.97;;;17.00;67.90;;;;;;5035242;28;20136;-83
2023/07/04 10:01:08;;;;;;;6.95;1.92;;;17.00;68.20;;;;;;5038977;28;20508;-82
2023/07/04 10:03:37;;;;;;;7.05;2.03;;;17.00;68.40;;;;;;5033917;28;20042;-82
2023/07/04 10:06:06;;;;;;;11.50;2.47;;;17.10;66.90;;;;;;5018122;28;20050;-80
2023/07/04 10:08:50;;;;;;;9.55;2.03;;;17.20;67.20;;;;;;5063158;22;20065;-80
2023/07/04 10:11:25;;;;;;;7.17;1.83;;;17.20;66.40;;;;;;5024710;28;20050;-80
2023/07/04 10:13:59;;;;;;;8.60;1.80;;;17.40;65.50;;;;;;5003084;28;20050;-80
2023/07/04 10:16:27;;;;;;;9.32;1.83;;;17.50;64.80;;;;;;5012374;28;20129;-80
2023/07/04 10:19:04;;;;;;;7.38;1.65;;;17.50;63.90;;;;;;5017785;28;20112;-81
2023/07/04 10:21:39;;;;;;;7.97;1.52;;;17.60;63.70;;;;;;5014697;28;20128;-82
2023/07/04 10:24:07;;;;;;;9.07;2.07;;;17.60;64.10;;;;;;5020010;28;20506;-82
2023/07/04 10:26:35;;;;;;;7.60;1.92;;;17.60;64.00;;;;;;5016004;28;20058;-82
2023/07/04 10:29:02;;;;;;;8.60;1.65;;;17.60;64.30;;;;;;5029086;28;20054;-81
2023/07/04 10:31:31;;;;;;;6.82;1.98;;;17.60;65.60;;;;;;5017173;28;20058;-85
2023/07/04 10:34:05;;;;;;;8.52;1.80;;;17.60;65.90;;;;;;4998525;28;20227;-86
2023/07/04 10:36:36;;;;;;;8.67;1.70;;;17.80;64.30;;;;;;5005204;28;20046;-85
2023/07/04 10:39:07;;;;;;;9.75;2.00;;;17.80;63.50;;;;;;4999100;28;20051;-84
2023/07/04 10:41:39;;;;;;;8.82;1.80;;;18.00;63.20;;;;;;5017302;28;20047;-82
2023/07/04 10:44:12;;;;;;;6.80;1.60;;;18.00;60.80;;;;;;5007670;28;20056;-81
2023/07/04 10:46:45;;;;;;;7.90;1.40;;;18.00;60.70;;;;;;5010860;28;20130;-85
2023/07/04 10:49:18;;;;;;;6.27;1.63;;;18.00;59.70;;;;;;5010597;28;20046;-84
2023/07/04 10:51:49;;;;;;;12.68;1.80;;;18.10;58.70;;;;;;5004324;28;20468;-84
2023/07/04 10:54:16;;;;;;;10.05;1.73;;;18.10;57.80;;;;;;4988603;28;20085;-82
2023/07/04 10:56:49;;;;;;;5.78;1.20;;;18.20;58.20;;;;;;5004448;28;20060;-83
2023/07/04 10:59:26;;;;;;;5.50;1.23;;;18.20;55.80;;;;;;5008348;28;20061;-83
2023/07/04 11:01:57;;;;;;;6.57;1.10;;;18.20;56.50;;;;;;5008795;28;20125;-81
2023/07/04 11:04:31;;;;;;;5.63;1.15;;;18.30;55.30;;;;;;5007743;28;20058;-81
2023/07/04 11:07:04;;;;;;;6.38;1.25;;;18.30;56.20;;;;;;4984539;28;20508;-83
2023/07/04 11:09:35;;;;;;;7.07;1.60;;;18.30;56.60;;;;;;4994598;28;20521;-82
2023/07/04 11:12:06;;;;;;;4.28;1.27;;;18.30;55.80;;;;;;5007253;28;20187;-84
2023/07/04 11:14:39;;;;;;;5.03;1.27;;;18.40;54.60;;;;;;5005359;28;20056;-82
2023/07/04 11:17:11;;;;;;;6.32;1.17;;;18.40;56.10;;;;;;4996460;28;20441;-83
2023/07/04 11:19:55;;;;;;;5.43;1.40;;;18.40;55.40;;;;;;5007494;28;20085;-84
2023/07/04 11:22:48;;;;;;;4.07;0.88;;;18.40;55.90;;;;;;4987025;28;20572;-82
2023/07/04 11:25:53;;;;;;;6.90;1.05;;;18.40;55.30;;;;;;4989027;28;20051;-82
2023/07/04 11:28:26;;;;;;;8.30;1.50;;;18.40;55.20;;;;;;5007970;28;20157;-83
2023/07/04 11:31:07;;;;;;;6.10;1.20;;;18.40;56.40;;;;;;4991890;28;20054;-83
2023/07/04 11:33:39;;;;;;;5.32;1.00;;;18.40;56.60;;;;;;5008334;28;20108;-83
2023/07/04 11:36:08;;;;;;;4.50;1.20;;;18.50;53.80;;;;;;5008316;28;20105;-83
2023/07/04 11:38:44;;;;;;;8.40;1.20;;;18.50;53.70;;;;;;5008202;28;20085;-82
2023/07/04 11:41:11;;;;;;;6.10;1.00;;;18.50;54.80;;;;;;5006670;28;20054;-81
2023/07/04 11:43:45;;;;;;;5.20;0.80;;;18.50;54.60;;;;;;5007332;28;20097;-82
2023/07/04 11:46:22;;;;;;;5.13;1.13;;;18.60;55.30;;;;;;5008396;28;20064;-81
2023/07/04 11:48:52;;;;;;;3.40;1.00;;;18.70;55.30;;;;;;5008005;28;20789;-81
2023/07/04 11:51:22;;;;;;;5.65;1.00;;;18.80;54.20;;;;;;5008451;28;20050;-83
2023/07/04 11:53:56;;;;;;;5.90;1.10;;;18.90;54.10;;;;;;4999673;28;20134;-81
2023/07/04 11:56:41;;;;;;;7.70;1.48;;;19.00;54.50;;;;;;5007363;28;20051;-83
2023/07/04 11:59:48;;;;;;;9.20;1.42;;;19.10;55.00;;;;;;5001348;28;20050;-81
2023/07/04 12:02:26;;;;;;;9.52;1.80;;;19.20;55.50;;;;;;4995393;28;20050;-82
2023/07/04 12:04:54;;;;;;;8.65;2.00;;;19.20;55.50;;;;;;5007393;28;20062;-82
2023/07/04 12:07:42;;;;;;;9.97;2.33;;;19.20;55.10;;;;;;5007746;28;20046;-83
2023/07/04 12:10:17;;;;;;;7.78;1.90;;;19.30;55.70;;;;;;5007044;28;20058;-81
2023/07/04 12:12:45;;;;;;;10.60;1.90;;;19.30;55.70;;;;;;4998119;28;20061;-80
2023/07/04 12:15:15;;;;;;;7.03;1.70;;;19.30;54.70;;;;;;5005894;28;20133;-83
2023/07/04 12:17:45;;;;;;;8.55;1.65;;;19.40;55.00;;;;;;5004169;28;20050;-82
2023/07/04 12:20:14;;;;;;;6.47;1.63;;;19.40;55.00;;;;;;5005332;28;20050;-83
2023/07/04 12:22:51;;;;;;;8.52;1.77;;;19.30;54.20;;;;;;5005565;28;20133;-81
2023/07/04 12:25:23;;;;;;;8.27;2.05;;;19.30;54.50;;;;;;5005676;28;20054;-81
2023/07/04 12:27:50;;;;;;;7.22;1.55;;;19.30;53.90;;;;;;5005411;28;20062;-78
2023/07/04 12:30:17;;;;;;;6.95;1.75;;;19.30;54.00;;;;;;5008212;28;20050;-78
2023/07/04 12:32:44;;;;;;;7.53;1.70;;;19.30;54.00;;;;;;4994816;28;20092;-80
2023/07/04 12:35:20;;;;;;;8.77;1.83;;;19.30;53.70;;;;;;5004895;28;20046;-81
2023/07/04 12:37:50;;;;;;;9.05;1.90;;;19.30;54.70;;;;;;5006367;28;20453;-81
2023/07/04 12:40:21;;;;;;;8.45;1.67;;;19.20;54.70;;;;;;4989775;28;20137;-81
2023/07/04 12:42:49;;;;;;;8.07;1.73;;;19.30;54.70;;;;;;5005930;28;20057;-83
2023/07/04 12:45:20;;;;;;;12.07;1.90;;;19.30;53.10;;;;;;5005747;28;20061;-84
2023/07/04 12:47:49;;;;;;;6.40;1.20;;;19.40;53.50;;;;;;5006301;28;20081;-81
2023/07/04 12:50:19;;;;;;;7.07;1.33;;;19.40;53.40;;;;;;5007036;28;20055;-84
2023/07/04 12:52:49;;;;;;;5.38;1.10;;;19.50;53.70;;;;;;5006272;28;20130;-83
2023/07/04 12:55:27;;;;;;;7.45;1.40;;;19.50;54.10;;;;;;5007408;28;20066;-85
2023/07/04 12:57:55;;;;;;;5.10;1.27;;;19.50;54.50;;;;;;5007658;28;20157;-84
2023/07/04 13:00:28;;;;;;;10.50;1.80;;;19.60;53.90;;;;;;5008224;28;20054;-88
2023/07/04 13:02:59;;;;;;;6.05;1.38;;;19.70;53.00;;;;;;4994708;28;20066;-83